Terminal Aerodrome Forecast
Issued by NWS

Home | Current Version | Previous Version | Text Only | Print | Product List | Glossary On
Versions: 1 2 3 4 5 6 7 8 9 10 11 12 13
000
FTUS44 KCRP 191738
TAFLRD
TAF
KLRD 191738Z 1918/2018 15011KT P6SM BKN035
     FM200100 VRB06KT 4SM SHRA BR VCTS BKN035CB
      TEMPO 2001/2004 VRB35G45KT 3/4SM TS BR BKN035CB
     FM200500 VRB06KT P6SM VCSH BKN040
     FM201000 33011KT P6SM BKN022=

USA.gov is the U.S. government's official web portal to all federal, state and local government web resources and services.